Surface observations / Quebec / CYHU (71371)

Quebec | Canada | USA | France | UK | Europe | Elsewhere

Display: Info & Location for CYHU (71371) | Help decoding METAR

CYHU MONTREAL/ST HUBERT A QB CN
Raw surface observations for station CYHU
CYHU 260600Z AUTO 18007KT 7SM OVC160 21/21 A2984 RMK SLP106 DENSITY ALT 900FT=
CYHU 260500Z AUTO 17006KT 9SM CLR 21/21 A2985 RMK SLP108 DENSITY ALT 900FT=
CYHU 260400Z AUTO 18006KT 9SM OVC180 22/22 A2985 RMK SLP108 DENSITY ALT 1000FT=
CYHU 260300Z AUTO 19006KT 9SM BKN180 BKN210 22/22 A2986 RMK SLP111 DENSITY ALT 1000FT=
CYHU 260200Z AUTO 19005KT 9SM OVC220 23/23 A2986 RMK SLP113 DENSITY ALT 1100FT=
CYHU 260100Z AUTO 18006KT 9SM BKN230 OVC250 23/23 A2986 RMK SLP112 DENSITY ALT 1100FT=
CYHU 260000Z AUTO 18006KT 9SM BKN220 BKN240 23/23 A2986 RMK SLP112 DENSITY ALT 1100FT=
CYHU 252300Z AUTO 17007KT 9SM BKN220 24/24 A2986 RMK SLP112 DENSITY ALT 1200FT=
CYHU 252200Z AUTO 17005KT 140V200 9SM BKN210 24/24 A2984 RMK SLP107 DENSITY ALT 1200FT=
CYHU 252120Z AUTO 18005KT 7SM SCT008 OVC080 23/23 A2985 RMK SLP110 DENSITY ALT 1100FT=
CYHU 252114Z AUTO 19003KT 7SM BKN008 OVC080 23/23 A2985 RMK SLP110 DENSITY ALT 1100FT=
CYHU 252100Z AUTO 17005KT 6SM BR BKN080 BKN220 23/23 A2985 RMK SLP110 DENSITY ALT 1100FT=
CYHU 252041Z AUTO 17008KT 5SM BR FEW004 SCT012 BKN220 23/23 A2985 RMK SLP109 DENSITY ALT 1000FT=
CYHU 252015Z AUTO 18005KT 3SM BR OVC010 22/22 A2986 RMK SLP112 DENSITY ALT 900FT=
CYHU 252011Z AUTO 19005KT 3SM BR OVC010 22/22 A2986 RMK SLP112 DENSITY ALT 900FT=
CYHU 252009Z AUTO 19005KT 3SM BR BKN008 OVC012 22/22 A2986 RMK SLP113 DENSITY ALT 900FT=
CYHU 252001Z AUTO 17005KT 2 1/2SM BR OVC008 22/22 A2986 RMK SLP112 DENSITY ALT 900FT=
CYHU 252000Z AUTO 17005KT 2 1/2SM -RA BR OVC008 22/22 A2986 RMK SLP112 DENSITY ALT 900FT=
CYHU 251951Z AUTO 17005KT 2 1/4SM -RA BR OVC008 22/22 A2986 RMK SLP113 DENSITY ALT 900FT=
CYHU 251948Z AUTO 19005KT 2 1/4SM -RA BR SCT005 OVC010 22/22 A2986 RMK VIS VRB 1 1/2-3 SLP113 DENSITY ALT 900FT=
CYHU 251946Z AUTO 19006KT 2 1/4SM -RA BR OVC007 22/22 A2986 RMK VIS VRB 1 1/2-3 SLP114 DENSITY ALT 900FT=
CYHU 251944Z AUTO 19005KT 2 1/4SM -RA BR BKN005 OVC010 22/22 A2986 RMK VIS VRB 1 1/2-3 SLP114 DENSITY ALT 900FT=
CYHU 251930Z AUTO 17006KT 2SM -RA BR OVC007 22/22 A2986 RMK VIS VRB 1 1/4-3 SLP114 DENSITY ALT 900FT=
CYHU 251927Z AUTO 17006KT 2 1/4SM -RA BR BKN004 OVC009 22/22 A2986 RMK VIS VRB 1 1/4-3 SLP114 DENSITY ALT 900FT=
CYHU 251914Z AUTO 17006KT 150V220 3SM -RA BR BKN004 OVC012 22/22 A2987 RMK SLP115 DENSITY ALT 900FT=
CYHU 251900Z AUTO 19006KT 2SM -RA BR BKN004 BKN009 OVC014 22/22 A2987 RMK SLP116 DENSITY ALT 900FT=
CYHU 251859Z AUTO 18006KT 2SM -RA BR SCT004 BKN009 OVC014 22/22 A2987 RMK SLP116 DENSITY ALT 900FT=
CYHU 251857Z AUTO 18006KT 2SM -RA BR SCT004 OVC014 22/22 A2987 RMK SLP115 DENSITY ALT 900FT=
CYHU 251854Z AUTO 18007KT 2 1/2SM -RA BR SCT004 BKN009 OVC014 22/22 A2986 RMK SLP114 DENSITY ALT 900FT=
CYHU 251844Z AUTO 17006KT 2SM -RA BR SCT006 SCT009 OVC015 22/22 A2987 RMK VIS VRB 1 1/4-3 SLP115 DENSITY ALT 900FT=
CYHU 251839Z AUTO 17007KT 2 1/4SM -RA BR SCT006 BKN009 OVC015 22/22 A2987 RMK SLP115 DENSITY ALT 900FT=
CYHU 251837Z AUTO 16008KT 2 1/4SM -RA BR SCT006 BKN010 OVC014 22/22 A2987 RMK SLP115 DENSITY ALT 900FT=
CYHU 251820Z AUTO 17007KT 3SM -RA BR BKN006 OVC013 22/22 A2987 RMK SLP115 DENSITY ALT 900FT=
CYHU 251817Z AUTO 17008KT 2SM -RA BR BKN006 OVC013 22/22 A2987 RMK SLP115 DENSITY ALT 900FT=
CYHU 251800Z AUTO 18007KT 1 1/2SM -RA BR BKN006 OVC010 22/22 A2987 RMK VIS VRB 1 1/4-2 1/2 PCPN 1.2MM PAST HR SLP117 DENSITY ALT 900FT=
CYHU 251744Z AUTO 22007KT 1 3/4SM -RA BR BKN008 BKN017 OVC026 22/22 A2988 RMK SLP118 DENSITY ALT 900FT=
CYHU 251740Z AUTO 21007KT 2 1/4SM -RA BR BKN008 BKN017 BKN023 OVC028 22/22 A2988 RMK SLP118 DENSITY ALT 1000FT=
CYHU 251719Z AUTO 25009KT 3SM -RA BR SCT010 SCT016 OVC023 22/22 A2988 RMK SLP118 DENSITY ALT 900FT=
CYHU 251715Z AUTO 25008KT 2 1/2SM -RA BR SCT010 BKN021 OVC026 22/22 A2988 RMK SLP118 DENSITY ALT 1000FT=
CYHU 251700Z AUTO 23009KT 4SM -RA BR SCT010 BKN017 OVC025 23/22 A2988 RMK SLP119 DENSITY ALT 1000FT=
CYHU 251622Z AUTO 17007KT 5SM -RA BR BKN031 BKN035 OVC046 23/21 A2988 RMK SLP121 DENSITY ALT 1000FT=
CYHU 251609Z AUTO 18010KT 8SM -RA BKN031 OVC039 23/20 A2988 RMK SLP120 DENSITY ALT 1000FT=
CYHU 251600Z AUTO 17010KT 9SM BKN031 OVC039 24/20 A2988 RMK SLP119 DENSITY ALT 1100FT=
CYHU 251500Z AUTO 18008KT 9SM BKN043 OVC055 24/19 A2988 RMK SLP120 DENSITY ALT 1100FT=
CYHU 251300Z AUTO 18010G15KT 9SM BKN070 BKN087 OVC110 22/18 A2989 RMK SLP122 DENSITY ALT 1000FT=
CYHU 251200Z AUTO 18010G15KT 9SM BKN055 OVC072 22/18 A2989 RMK SLP124 DENSITY ALT 900FT=
CYHU 251100Z AUTO 18009KT 9SM OVC055 21/18 A2990 RMK SLP127 DENSITY ALT 800FT=
CYHU 251000Z AUTO 20009KT 9SM BKN060 BKN074 OVC140 21/17 A2991 RMK SLP130 DENSITY ALT 800FT=
CYHU 250900Z AUTO 19009KT 9SM OVC180 21/17 A2991 RMK SLP128 DENSITY ALT 800FT=
CYHU 250800Z AUTO 18010KT 9SM FEW170 OVC210 21/18 A2992 RMK SLP132 DENSITY ALT 700FT=
CYHU 250700Z AUTO 19011KT 9SM OVC180 21/18 A2994 RMK SLP139 DENSITY ALT 800FT=
CYHU 250600Z AUTO 18008KT 9SM BKN240 22/18 A2995 RMK SLP142 DENSITY ALT 800FT=